Terminal Aerodrome Forecast
Issued by NWS

Home | Current Version | Previous Version | Text Only | Print | Product List | Glossary On
Versions: 1 2 3 4 5 6 7 8 9 10 11 12 13 14 15 16 17 18 19
000
FTUS41 KGYX 221120
TAFLEB
TAF
KLEB 221120Z 2212/2312 VRB03KT 5SM -SHRA BR OVC040
      TEMPO 2212/2213 2SM SHRA OVC015
     FM221400 VRB03KT P6SM BKN025
     FM222200 VRB03KT P6SM SCT050 BKN100=

USA.gov is the U.S. government's official web portal to all federal, state and local government web resources and services.